Center City, MN (55012)

2:28 AM CDT on July 07, 2015 (GMT -0500)
Amador Township | | Change Station
CLOSE
Current Station
Personal Weather Station
Location: Almelund, MN
Elevation: 880 ft
Nearby Weather Stations

Elev 880 ft 45.55 °N, 92.80 °W | Updated 57 seconds ago

Partly Cloudy
Partly Cloudy
52.0 °F
Feels Like 52.0 °F
N
9.2
Wind Variable Wind from NNW
Gusts 9.2 mph

Today
High -- | Low -- °F
--% Chance of Precip.
Yesterday
High -- | Low -- °F
Precip. -- in
5:30 AM 9:01 PM
Waning Gibbous, 67% visible
Pressure 30.09 in
Visibility 10.0 miles
Clouds Overcast 5000 ft
Dew Point 49 °F
Humidity 89%
Rainfall 0.00 in
Snow Depth Not available.
UV 0 out of 12
Pollen .60 out of 12
Air Quality Not available.
Flu Activity Not available.
METAR KOEO 070715Z AUTO 32004KT 10SM OVC050 13/09 A3009 RMK AO2 T01290094

More Conditions Fewer Conditions

Pressure 30.09 in
Visibility 10.0 miles
Clouds Overcast 5000 ft
Dew Point 49 °F
Humidity 89%
Rainfall 0.00 in
Snow Depth Not available.
UV 0 out of 12
Pollen .60 out of 12
Air Quality Not available.
Flu Activity Not available.
METAR KOEO 070715Z AUTO 32004KT 10SM OVC050 13/09 A3009 RMK AO2 T01290094

More Conditions Fewer Conditions

10-Day Weather Forecast

×

Almanac

Astronomy

Jul. 07, 2015 Rise Set
Actual Time
Civil Twilight
Nautical Twilight
Astronomical Twilight
Moon
Length of Visible Light
Length of Day
Tomorrow will be .
, % of the Moon is Illuminated

Today's Extremes

State Highs State Lows

Community

WunderPhotos

Upload Photos

1,835,756 photos uploaded!

WunderBlogs® & News

Nearby

Air Quality

  Air Quality AQ Index Pollutant
Not available.

Snow Depth

Station Depth Elevation

Earthquake Activity

City Distance Mag. Time & Date
Minimum magnitude displayed is 2.5.

Coastal Water Temperatures

Place Temperature

Stations

Nearby Weather Stations

Station Location Temp. Windchill Dew Point Humidity Wind Precip. Elev Updated Type